Time;durP1;ratioP1;P1;durP2;ratioP2;P2;SDS_P1;SDS_P2;PMS_P1;PMS_P2;Temp;Humidity;BMP_temperature;BMP_pressure;BME280_temperature;BME280_humidity;BME280_pressure;Samples;Min_cycle;Max_cycle;Signal;HPM_P1;HPM_P2
2022/05/07 00:00:36;;;;;;;9.68;8.18;;;15.80;91.70;;;;;;5075954;28;20500;-70
2022/05/07 00:03:02;;;;;;;10.88;7.65;;;15.70;92.20;;;;;;5075405;28;20489;-70
2022/05/07 00:05:27;;;;;;;13.43;7.75;;;15.80;92.00;;;;;;5075375;28;20047;-70
2022/05/07 00:07:53;;;;;;;10.13;7.68;;;15.70;92.10;;;;;;5075543;28;20040;-70
2022/05/07 00:10:19;;;;;;;9.32;7.35;;;15.70;92.20;;;;;;5075474;28;20040;-70
2022/05/07 00:12:45;;;;;;;13.23;7.80;;;15.70;92.20;;;;;;5075348;28;20029;-70
2022/05/07 00:15:11;;;;;;;10.02;7.20;;;15.70;92.20;;;;;;5075467;28;20499;-70
2022/05/07 00:20:20;;;;;;;13.23;7.22;;;15.70;92.10;;;;;;5075634;28;20035;-70
2022/05/07 00:22:46;;;;;;;11.50;7.53;;;15.70;92.00;;;;;;5075170;28;20041;-70
2022/05/07 00:25:12;;;;;;;11.05;7.25;;;15.70;92.30;;;;;;5075300;28;20488;-70
2022/05/07 00:27:37;;;;;;;10.20;7.32;;;15.70;92.20;;;;;;5075349;28;20040;-70
2022/05/07 00:30:04;;;;;;;8.35;6.90;;;15.70;92.30;;;;;;5075045;28;20108;-70
2022/05/07 00:32:30;;;;;;;10.23;7.30;;;15.70;92.40;;;;;;5074609;28;20120;-70
2022/05/07 00:34:56;;;;;;;9.57;6.55;;;15.70;92.50;;;;;;5075098;28;20464;-69
2022/05/07 00:37:23;;;;;;;10.90;7.18;;;15.70;92.40;;;;;;5075434;28;20039;-70
2022/05/07 00:39:49;;;;;;;14.95;7.63;;;15.70;92.30;;;;;;5072592;28;20102;-70
2022/05/07 00:42:15;;;;;;;11.05;6.97;;;15.70;92.50;;;;;;5071938;28;20063;-70
2022/05/07 00:44:41;;;;;;;10.75;7.38;;;15.70;92.50;;;;;;5073370;28;20040;-70
2022/05/07 00:47:12;;;;;;;8.98;7.28;;;15.70;92.50;;;;;;5075030;28;20070;-69
2022/05/07 00:49:38;;;;;;;8.38;6.78;;;15.70;92.50;;;;;;5074350;28;20036;-70
2022/05/07 00:52:05;;;;;;;9.25;7.93;;;15.70;92.60;;;;;;5074667;28;20041;-70
2022/05/07 00:54:31;;;;;;;9.77;7.18;;;15.70;92.60;;;;;;5074587;28;20044;-70
2022/05/07 00:56:57;;;;;;;12.18;7.40;;;15.70;92.70;;;;;;5074422;28;20041;-70
2022/05/07 00:59:23;;;;;;;13.15;7.72;;;15.70;92.80;;;;;;5071387;28;20037;-71
2022/05/07 01:01:48;;;;;;;8.73;7.28;;;15.70;92.80;;;;;;5071281;28;20044;-70
2022/05/07 01:04:14;;;;;;;10.98;7.40;;;15.70;92.90;;;;;;5072013;28;20538;-70
2022/05/07 01:06:40;;;;;;;9.05;7.75;;;15.60;92.80;;;;;;5073916;28;20123;-70
2022/05/07 01:09:07;;;;;;;11.05;8.13;;;15.60;92.90;;;;;;5074484;28;20108;-70
2022/05/07 01:11:34;;;;;;;9.73;8.10;;;15.60;92.90;;;;;;5074268;28;20443;-70
2022/05/07 01:13:59;;;;;;;10.95;9.23;;;15.60;93.00;;;;;;5073656;28;20489;-70
2022/05/07 01:16:25;;;;;;;12.32;9.43;;;15.60;93.00;;;;;;5073611;28;20043;-71
2022/05/07 01:18:51;;;;;;;16.23;10.52;;;15.60;93.00;;;;;;5073757;28;20036;-70
2022/05/07 01:21:17;;;;;;;14.93;9.98;;;15.60;93.00;;;;;;5072928;28;20791;-70
2022/05/07 01:23:44;;;;;;;15.18;10.88;;;15.60;93.00;;;;;;5073953;28;20103;-70
2022/05/07 01:26:11;;;;;;;13.55;10.13;;;15.60;93.00;;;;;;5073907;28;20373;-70
2022/05/07 01:28:37;;;;;;;12.55;10.23;;;15.60;93.10;;;;;;5074239;28;20035;-70
2022/05/07 01:31:03;;;;;;;22.20;11.52;;;15.60;93.20;;;;;;5073797;28;20035;-70
2022/05/07 01:33:33;;;;;;;17.33;10.93;;;15.50;93.10;;;;;;5073832;28;20068;-70
2022/05/07 01:36:01;;;;;;;10.98;9.88;;;15.50;93.20;;;;;;5073260;28;20037;-70
2022/05/07 01:38:27;;;;;;;14.52;9.98;;;15.50;93.20;;;;;;5073451;28;20039;-70
2022/05/07 01:40:53;;;;;;;13.90;10.45;;;15.60;93.20;;;;;;5073593;28;20041;-70
2022/05/07 01:43:19;;;;;;;11.23;9.40;;;15.50;93.10;;;;;;5073118;28;20068;-71
2022/05/07 01:45:44;;;;;;;11.80;9.55;;;15.50;93.20;;;;;;5073334;28;20420;-70
2022/05/07 01:48:11;;;;;;;11.45;8.57;;;15.50;93.20;;;;;;5073405;28;20032;-70
2022/05/07 01:50:41;;;;;;;12.52;8.95;;;15.50;93.20;;;;;;5073645;28;20468;-70
2022/05/07 01:53:13;;;;;;;14.35;9.30;;;15.50;93.20;;;;;;5073382;28;20040;-70
2022/05/07 01:55:39;;;;;;;10.25;8.52;;;15.50;93.20;;;;;;5073267;28;20042;-70
2022/05/07 01:58:05;;;;;;;9.48;8.48;;;15.50;93.10;;;;;;5073425;28;20079;-71
2022/05/07 02:00:33;;;;;;;10.35;8.60;;;15.50;93.10;;;;;;5073526;28;20032;-70
2022/05/07 02:03:00;;;;;;;14.60;10.10;;;15.50;93.10;;;;;;5073068;28;20045;-70
2022/05/07 02:05:27;;;;;;;11.70;9.05;;;15.50;93.10;;;;;;5073233;28;20032;-70
2022/05/07 02:07:54;;;;;;;13.15;10.10;;;15.40;93.20;;;;;;5073425;28;20048;-70
2022/05/07 02:10:20;;;;;;;12.63;10.60;;;15.40;93.20;;;;;;5073286;28;20033;-70
2022/05/07 02:12:46;;;;;;;15.10;10.73;;;15.40;93.20;;;;;;5073327;28;20043;-70
2022/05/07 02:15:12;;;;;;;13.90;11.23;;;15.40;93.40;;;;;;5073385;28;20037;-70
2022/05/07 02:17:38;;;;;;;13.57;11.43;;;15.40;93.30;;;;;;5073086;28;20485;-70
2022/05/07 02:20:04;;;;;;;14.93;12.13;;;15.40;93.60;;;;;;5073125;28;20393;-70
2022/05/07 02:22:30;;;;;;;16.88;11.85;;;15.40;93.40;;;;;;5073169;28;20076;-70
2022/05/07 02:24:58;;;;;;;15.52;11.93;;;15.40;93.40;;;;;;5073292;28;20079;-70
2022/05/07 02:27:24;;;;;;;12.50;10.65;;;15.40;93.40;;;;;;5073103;28;20032;-70
2022/05/07 02:29:50;;;;;;;13.02;9.75;;;15.40;93.40;;;;;;5072922;28;20078;-70
2022/05/07 02:32:17;;;;;;;11.45;9.38;;;15.40;93.40;;;;;;5072178;28;20449;-70
2022/05/07 02:34:43;;;;;;;12.85;9.77;;;15.40;93.30;;;;;;5073157;28;20036;-70
2022/05/07 02:37:09;;;;;;;11.88;9.20;;;15.40;93.20;;;;;;5071574;28;20036;-70
2022/05/07 02:39:35;;;;;;;11.35;9.35;;;15.40;93.20;;;;;;5052129;28;20449;-70
2022/05/07 02:44:46;;;;;;;12.57;10.27;;;15.40;93.50;;;;;;5073109;28;20138;-70
2022/05/07 02:47:12;;;;;;;12.82;9.88;;;15.30;93.60;;;;;;5072994;28;20047;-70
2022/05/07 02:49:38;;;;;;;15.18;10.15;;;15.30;93.50;;;;;;5072884;28;20469;-70
2022/05/07 02:52:04;;;;;;;12.90;10.07;;;15.20;93.60;;;;;;5072757;28;20382;-70
2022/05/07 02:54:30;;;;;;;11.40;10.20;;;15.30;93.70;;;;;;5072781;28;20032;-70
2022/05/07 02:56:56;;;;;;;14.02;10.20;;;15.30;93.70;;;;;;5072821;28;20033;-70
2022/05/07 02:59:22;;;;;;;13.30;9.75;;;15.30;93.60;;;;;;5072979;28;20054;-70
2022/05/07 03:01:48;;;;;;;12.15;10.15;;;15.30;93.50;;;;;;5072717;28;20040;-70
2022/05/07 03:04:14;;;;;;;11.57;10.40;;;15.30;93.40;;;;;;5072764;28;20530;-70
2022/05/07 03:06:40;;;;;;;12.63;10.50;;;15.30;93.40;;;;;;5072431;28;20083;-70
2022/05/07 03:09:06;;;;;;;12.63;11.32;;;15.30;93.40;;;;;;5072414;28;20483;-70
2022/05/07 03:11:33;;;;;;;14.40;11.07;;;15.30;93.40;;;;;;5072833;28;20034;-70
2022/05/07 03:14:03;;;;;;;15.48;11.20;;;15.30;93.30;;;;;;5072845;28;20037;-70
2022/05/07 03:16:29;;;;;;;12.35;10.93;;;15.30;93.30;;;;;;5072538;28;20035;-70
2022/05/07 03:18:55;;;;;;;16.55;11.45;;;15.30;93.30;;;;;;5072332;28;20108;-70
2022/05/07 03:21:20;;;;;;;13.40;10.73;;;15.20;93.50;;;;;;5072219;28;20124;-70
2022/05/07 03:23:46;;;;;;;12.57;11.27;;;15.30;93.60;;;;;;5072525;28;20033;-70
2022/05/07 03:26:13;;;;;;;13.95;11.55;;;15.30;93.70;;;;;;5072455;28;20033;-70
2022/05/07 03:28:39;;;;;;;13.88;12.20;;;15.30;93.70;;;;;;5072453;28;20060;-70
2022/05/07 03:31:05;;;;;;;13.88;12.30;;;15.30;93.80;;;;;;5072404;28;20108;-70
2022/05/07 03:33:31;;;;;;;15.95;12.23;;;15.30;93.90;;;;;;5072122;28;20509;-70
2022/05/07 03:35:57;;;;;;;14.80;12.75;;;15.30;93.90;;;;;;5072267;28;20044;-70
2022/05/07 03:38:23;;;;;;;13.50;12.10;;;15.30;94.00;;;;;;5072115;28;20105;-70
2022/05/07 03:40:49;;;;;;;16.17;12.63;;;15.30;93.90;;;;;;5072447;28;20508;-70
2022/05/07 03:43:15;;;;;;;16.13;12.15;;;15.30;94.00;;;;;;5072845;28;20122;-70
2022/05/07 03:45:42;;;;;;;15.50;12.73;;;15.30;94.00;;;;;;5076067;28;20029;-69
2022/05/07 03:48:09;;;;;;;15.40;12.48;;;15.30;94.10;;;;;;5075888;28;20045;-70
2022/05/07 03:50:35;;;;;;;15.90;13.13;;;15.30;94.20;;;;;;5076028;28;20036;-70
2022/05/07 03:55:45;;;;;;;16.98;13.73;;;15.30;94.20;;;;;;5076415;28;20492;-70
2022/05/07 03:58:15;;;;;;;18.20;13.40;;;15.30;94.20;;;;;;5075897;28;20024;-70
2022/05/07 04:00:42;;;;;;;16.17;14.02;;;15.30;94.10;;;;;;5075556;28;20044;-70
2022/05/07 04:03:08;;;;;;;18.58;14.82;;;15.30;94.10;;;;;;5075470;28;20447;-70
2022/05/07 04:05:33;;;;;;;17.35;14.35;;;15.20;94.20;;;;;;5075976;28;20086;-70
2022/05/07 04:07:59;;;;;;;17.08;14.98;;;15.20;94.20;;;;;;5075457;28;20060;-70
2022/05/07 04:10:25;;;;;;;17.35;15.23;;;15.30;94.60;;;;;;5075822;28;20381;-70
2022/05/07 04:12:51;;;;;;;16.40;14.60;;;15.20;94.30;;;;;;5075400;28;20032;-70
2022/05/07 04:17:53;;;;;;;22.35;15.23;;;15.20;94.30;;;;;;5158049;22;20113;-69
2022/05/07 04:20:19;;;;;;;17.92;15.43;;;15.30;94.30;;;;;;5022555;23;20137;-68
2022/05/07 04:22:44;;;;;;;16.92;14.02;;;15.30;94.30;;;;;;5015611;28;20125;-71
2022/05/07 04:25:12;;;;;;;15.20;13.57;;;15.30;94.30;;;;;;5015757;28;20085;-69
2022/05/07 04:27:38;;;;;;;16.77;14.05;;;15.30;94.00;;;;;;5015523;28;20034;-71
2022/05/07 04:30:04;;;;;;;17.65;14.00;;;15.40;93.70;;;;;;5015391;28;20053;-69
2022/05/07 04:32:30;;;;;;;20.67;16.13;;;15.30;93.50;;;;;;4997725;28;20385;-71
2022/05/07 04:34:56;;;;;;;19.65;14.80;;;15.30;93.40;;;;;;5015490;28;20113;-71
2022/05/07 04:37:23;;;;;;;20.75;16.25;;;15.30;93.50;;;;;;5015528;28;20100;-71
2022/05/07 04:39:48;;;;;;;19.85;15.02;;;15.30;93.70;;;;;;5015193;28;20037;-72
2022/05/07 04:42:14;;;;;;;17.98;14.65;;;15.30;93.70;;;;;;5015270;28;20038;-71
2022/05/07 04:44:40;;;;;;;18.15;15.50;;;15.30;93.70;;;;;;5015365;28;20501;-71
2022/05/07 04:47:06;;;;;;;18.55;15.85;;;15.30;93.90;;;;;;5015323;28;20041;-71
2022/05/07 04:49:32;;;;;;;21.55;16.35;;;15.30;94.10;;;;;;5015082;28;20030;-71
2022/05/07 04:51:59;;;;;;;18.98;15.43;;;15.30;94.20;;;;;;5015192;28;20034;-71
2022/05/07 04:54:24;;;;;;;17.13;15.07;;;15.30;94.20;;;;;;5014550;28;20030;-70
2022/05/07 04:56:51;;;;;;;18.88;14.93;;;15.30;94.10;;;;;;5014246;28;20148;-71
2022/05/07 04:59:20;;;;;;;19.63;15.77;;;15.30;94.10;;;;;;5014808;28;20033;-71
2022/05/07 05:01:47;;;;;;;17.58;14.05;;;15.30;94.20;;;;;;5014896;28;20053;-71
2022/05/07 05:04:13;;;;;;;17.15;14.52;;;15.30;94.30;;;;;;5014928;28;20038;-71
2022/05/07 05:06:39;;;;;;;20.27;15.32;;;15.30;94.20;;;;;;5014730;28;20034;-71
2022/05/07 05:09:06;;;;;;;20.67;14.85;;;15.20;94.20;;;;;;5014806;28;20057;-71
2022/05/07 05:11:34;;;;;;;16.38;14.60;;;15.30;94.10;;;;;;5014578;28;20040;-71
2022/05/07 05:14:00;;;;;;;22.15;16.27;;;15.30;94.00;;;;;;5014507;28;20038;-71
2022/05/07 05:16:26;;;;;;;19.55;15.60;;;15.30;94.10;;;;;;5014703;28;20026;-71
2022/05/07 05:18:51;;;;;;;19.35;15.80;;;15.30;94.00;;;;;;5014363;28;20092;-71
2022/05/07 05:21:17;;;;;;;23.20;16.48;;;15.30;94.10;;;;;;5014398;28;20062;-71
2022/05/07 05:23:46;;;;;;;22.35;17.75;;;15.30;94.20;;;;;;5014034;28;20046;-71
2022/05/07 05:26:12;;;;;;;22.70;16.75;;;15.30;94.20;;;;;;5014829;28;20398;-71
2022/05/07 05:28:39;;;;;;;21.15;17.40;;;15.30;94.10;;;;;;5014547;28;20036;-71
2022/05/07 05:31:06;;;;;;;19.55;16.25;;;15.30;94.20;;;;;;5014365;28;20095;-70
2022/05/07 05:33:31;;;;;;;20.98;16.88;;;15.30;94.30;;;;;;5014350;28;20542;-71
2022/05/07 05:35:57;;;;;;;21.52;16.73;;;15.30;94.30;;;;;;5014152;28;20112;-71
2022/05/07 05:38:23;;;;;;;22.02;16.55;;;15.40;94.30;;;;;;5014215;28;20033;-71
2022/05/07 05:40:48;;;;;;;17.38;15.15;;;15.40;94.20;;;;;;5014242;28;20034;-71
2022/05/07 05:43:14;;;;;;;20.85;15.27;;;15.50;93.90;;;;;;5014527;28;20135;-71
2022/05/07 05:45:40;;;;;;;16.00;14.30;;;15.40;93.80;;;;;;5014224;28;20030;-70
2022/05/07 05:48:05;;;;;;;19.33;15.02;;;15.50;93.80;;;;;;5014266;28;20060;-71
2022/05/07 05:50:32;;;;;;;17.38;14.77;;;15.50;93.80;;;;;;5014315;28;20030;-70
2022/05/07 05:52:58;;;;;;;16.85;14.15;;;15.50;93.80;;;;;;5015462;28;20034;-71
2022/05/07 05:55:24;;;;;;;16.90;13.82;;;15.50;93.60;;;;;;5013872;28;20036;-70
2022/05/07 05:57:50;;;;;;;17.15;14.15;;;15.60;93.30;;;;;;5014179;28;20033;-72
2022/05/07 06:00:17;;;;;;;18.92;14.57;;;15.50;93.40;;;;;;5013935;28;20038;-70
2022/05/07 06:02:44;;;;;;;15.93;13.82;;;15.50;93.40;;;;;;5016806;28;20037;-71
2022/05/07 06:05:13;;;;;;;19.00;14.70;;;15.60;93.50;;;;;;5023067;28;20040;-71
2022/05/07 06:07:39;;;;;;;19.98;15.30;;;15.50;93.30;;;;;;5020816;28;20542;-71
2022/05/07 06:10:06;;;;;;;15.05;13.45;;;15.50;93.80;;;;;;5013448;28;20064;-71
2022/05/07 06:12:32;;;;;;;14.85;13.05;;;15.50;93.70;;;;;;5013515;28;20489;-71
2022/05/07 06:14:58;;;;;;;17.70;12.68;;;15.50;93.70;;;;;;5013137;28;20037;-72
2022/05/07 06:17:25;;;;;;;13.73;12.10;;;15.50;93.90;;;;;;5013125;28;20374;-71
2022/05/07 06:19:52;;;;;;;16.08;12.23;;;15.40;94.00;;;;;;5013286;28;20042;-71
2022/05/07 06:22:17;;;;;;;14.77;11.75;;;15.50;94.20;;;;;;5013398;28;20088;-71
2022/05/07 06:27:33;;;;;;;12.77;10.95;;;15.50;94.30;;;;;;5013607;28;20057;-71
2022/05/07 06:30:04;;;;;;;15.73;10.98;;;15.50;94.30;;;;;;5013546;28;20034;-71
2022/05/07 06:32:42;;;;;;;29.52;11.23;;;15.50;94.40;;;;;;5012960;28;20030;-71
2022/05/07 06:35:09;;;;;;;13.50;9.57;;;15.50;94.30;;;;;;5012987;28;20088;-71
2022/05/07 06:37:36;;;;;;;10.30;9.20;;;15.50;94.30;;;;;;5013349;28;20030;-71
2022/05/07 06:40:06;;;;;;;13.90;9.23;;;15.50;94.30;;;;;;5013262;28;20042;-71
2022/05/07 06:42:35;;;;;;;12.50;10.48;;;15.50;94.30;;;;;;5013031;28;20393;-71
2022/05/07 06:45:02;;;;;;;10.68;9.57;;;15.50;94.30;;;;;;5013023;28;20057;-71
2022/05/07 06:47:28;;;;;;;10.60;9.55;;;15.50;94.30;;;;;;5013094;28;20045;-71
2022/05/07 06:49:53;;;;;;;11.27;9.80;;;15.50;94.30;;;;;;5013188;28;20034;-71
2022/05/07 06:52:19;;;;;;;14.18;10.68;;;15.50;94.40;;;;;;5013062;28;20482;-71
2022/05/07 06:54:45;;;;;;;11.88;9.95;;;15.60;94.40;;;;;;5012971;28;20516;-71
2022/05/07 06:57:11;;;;;;;10.88;9.75;;;15.60;94.40;;;;;;5013188;28;20037;-71
2022/05/07 06:59:37;;;;;;;11.07;9.48;;;15.60;94.40;;;;;;5013351;28;20042;-71
2022/05/07 07:02:03;;;;;;;14.05;10.23;;;15.60;94.50;;;;;;5013063;28;20073;-71
2022/05/07 07:04:29;;;;;;;11.38;10.18;;;15.60;94.60;;;;;;5013022;28;20068;-71
2022/05/07 07:06:55;;;;;;;11.00;9.00;;;15.60;94.50;;;;;;5012535;28;20447;-71
2022/05/07 07:09:20;;;;;;;12.75;9.60;;;15.60;94.50;;;;;;5012956;28;20112;-71
2022/05/07 07:11:47;;;;;;;10.05;8.95;;;15.70;94.40;;;;;;5012905;28;20042;-71
2022/05/07 07:14:13;;;;;;;14.18;9.60;;;15.60;94.30;;;;;;5012823;28;20405;-71
2022/05/07 07:16:38;;;;;;;10.60;9.50;;;15.60;94.40;;;;;;5012621;28;20033;-70
2022/05/07 07:19:04;;;;;;;10.55;9.02;;;15.70;94.40;;;;;;5014442;28;20042;-71
2022/05/07 07:21:30;;;;;;;9.90;8.93;;;15.60;94.30;;;;;;5016428;28;20042;-71
2022/05/07 07:23:56;;;;;;;10.82;9.27;;;15.70;94.30;;;;;;5016346;28;20522;-71
2022/05/07 07:26:21;;;;;;;12.63;8.13;;;15.70;94.40;;;;;;5016829;28;20089;-71
2022/05/07 07:28:47;;;;;;;10.45;9.45;;;15.70;94.40;;;;;;5016678;28;20169;-71
2022/05/07 07:31:13;;;;;;;10.23;8.63;;;15.70;94.60;;;;;;5016590;28;20113;-71
2022/05/07 07:33:39;;;;;;;10.68;8.38;;;15.70;94.60;;;;;;5013420;28;20029;-71
2022/05/07 07:36:07;;;;;;;9.52;8.52;;;15.70;94.60;;;;;;5015392;28;20390;-71
2022/05/07 07:38:33;;;;;;;10.25;8.75;;;15.80;94.50;;;;;;5018853;28;20038;-71
2022/05/07 07:40:58;;;;;;;10.57;8.50;;;15.80;94.30;;;;;;5035562;28;20040;-71
2022/05/07 07:43:24;;;;;;;9.90;8.80;;;15.70;94.10;;;;;;5035246;28;20072;-71
2022/05/07 07:48:34;;;;;;;11.15;9.23;;;15.80;94.10;;;;;;5035467;28;20107;-71
2022/05/07 07:51:00;;;;;;;11.52;8.82;;;15.80;94.20;;;;;;5035495;28;20041;-71
2022/05/07 07:53:26;;;;;;;10.18;9.07;;;15.80;94.40;;;;;;5035098;28;20040;-70
2022/05/07 07:55:52;;;;;;;8.82;7.93;;;15.90;94.40;;;;;;5032124;28;20513;-71
2022/05/07 07:58:18;;;;;;;9.15;7.57;;;15.90;94.50;;;;;;5034891;28;20034;-71
2022/05/07 08:00:44;;;;;;;10.48;7.60;;;15.90;94.30;;;;;;5034951;28;20033;-71
2022/05/07 08:03:15;;;;;;;7.78;6.35;;;15.90;94.20;;;;;;5034790;28;20077;-70
2022/05/07 08:05:43;;;;;;;7.22;5.43;;;16.00;94.00;;;;;;5035337;28;20477;-71
2022/05/07 08:13:40;;;;;;;8.55;7.35;;;16.00;93.70;;;;;;5034797;28;20111;-71
2022/05/07 08:16:10;;;;;;;9.60;6.65;;;16.10;93.90;;;;;;5035166;28;20038;-70
2022/05/07 08:18:36;;;;;;;7.15;5.65;;;16.10;93.90;;;;;;5035325;28;20083;-71
2022/05/07 08:21:03;;;;;;;8.85;6.03;;;16.20;93.60;;;;;;5034651;28;20033;-71
2022/05/07 08:23:29;;;;;;;8.65;5.78;;;16.20;93.60;;;;;;5033986;28;20041;-71
2022/05/07 08:25:55;;;;;;;8.23;5.63;;;16.30;93.60;;;;;;5034137;28;20388;-71
2022/05/07 08:28:24;;;;;;;8.82;6.28;;;16.30;93.50;;;;;;5033972;28;20423;-71
2022/05/07 08:30:50;;;;;;;6.50;5.55;;;16.30;93.40;;;;;;5032780;28;20079;-69
2022/05/07 08:33:19;;;;;;;7.40;4.70;;;16.40;93.40;;;;;;5034305;28;20122;-68
2022/05/07 08:35:45;;;;;;;7.88;4.95;;;16.40;93.10;;;;;;5034168;28;20120;-69
2022/05/07 08:38:11;;;;;;;7.47;5.03;;;16.40;92.80;;;;;;5034031;28;20049;-69
2022/05/07 08:40:40;;;;;;;9.23;4.85;;;16.50;92.70;;;;;;5034381;28;20092;-69
2022/05/07 08:43:06;;;;;;;7.15;5.18;;;16.50;92.60;;;;;;5034326;28;20480;-69
2022/05/07 08:45:32;;;;;;;8.90;5.05;;;16.50;92.30;;;;;;5033636;28;20105;-68
2022/05/07 08:47:59;;;;;;;19.95;4.88;;;16.70;98.60;;;;;;5033664;28;20041;-68
2022/05/07 08:50:26;;;;;;;8.63;4.60;;;;;;;;;;5032085;28;20034;-69
2022/05/07 08:52:53;;;;;;;6.57;3.88;;;16.60;91.50;;;;;;5033304;28;20080;-69
2022/05/07 08:55:19;;;;;;;5.75;3.42;;;16.70;91.40;;;;;;5033783;28;20045;-68
2022/05/07 08:57:50;;;;;;;5.45;3.10;;;16.70;90.80;;;;;;5034022;28;20029;-68
2022/05/07 09:00:19;;;;;;;7.72;3.42;;;16.70;91.00;;;;;;5033762;28;20106;-69
2022/05/07 09:02:45;;;;;;;5.20;3.63;;;16.70;91.00;;;;;;5033483;28;20044;-68
2022/05/07 09:05:13;;;;;;;4.32;3.50;;;16.70;91.00;;;;;;5033593;28;20478;-68
2022/05/07 09:07:50;;;;;;;5.47;3.38;;;16.70;91.00;;;;;;5033751;28;20034;-68
2022/05/07 09:10:15;;;;;;;7.78;3.30;;;16.80;90.80;;;;;;5033786;28;20109;-68
2022/05/07 09:12:41;;;;;;;5.63;3.38;;;16.80;90.70;;;;;;5033762;28;20116;-68
2022/05/07 09:15:08;;;;;;;5.40;2.88;;;16.90;90.50;;;;;;5033530;28;20026;-68
2022/05/07 09:17:34;;;;;;;4.43;3.08;;;16.90;89.10;;;;;;5033321;28;20084;-68
2022/05/07 09:20:31;;;;;;;3.92;3.10;;;16.90;88.90;;;;;;5033233;28;20045;-67
2022/05/07 09:22:57;;;;;;;3.22;2.90;;;17.00;89.30;;;;;;5013779;28;20513;-68
2022/05/07 09:25:25;;;;;;;4.32;2.83;;;17.00;89.20;;;;;;5033671;28;20068;-68
2022/05/07 09:27:54;;;;;;;4.40;2.80;;;17.00;89.20;;;;;;5033439;28;20038;-68
2022/05/07 09:30:24;;;;;;;12.05;2.83;;;;;;;;;;5032706;28;20042;-68
2022/05/07 09:32:51;;;;;;;8.07;3.45;;;17.00;88.40;;;;;;5033470;28;20074;-68
2022/05/07 09:38:04;;;;;;;23.08;3.58;;;17.00;89.80;;;;;;5034154;28;20079;-69
2022/05/07 09:40:31;;;;;;;6.93;3.53;;;17.10;90.80;;;;;;5034004;28;20053;-70
2022/05/07 09:42:57;;;;;;;10.75;3.28;;;17.20;92.50;;;;;;5033221;28;20129;-69
2022/05/07 09:45:30;;;;;;;4.00;2.97;;;17.10;90.50;;;;;;5015863;28;20045;-69
2022/05/07 09:47:58;;;;;;;3.33;2.90;;;17.10;90.10;;;;;;5033922;28;20111;-68
2022/05/07 09:50:43;;;;;;;3.60;2.60;;;17.20;90.10;;;;;;5033822;28;20026;-68
2022/05/07 09:58:51;;;;;;;3.50;2.63;;;17.30;96.20;;;;;;5033914;28;20460;-68
2022/05/07 10:01:41;;;;;;;3.28;2.42;;;17.30;92.70;;;;;;5033553;28;20026;-69
2022/05/07 10:04:16;;;;;;;4.15;2.03;;;17.30;91.90;;;;;;5033526;28;20520;-68
2022/05/07 10:07:09;;;;;;;6.38;1.63;;;17.30;90.60;;;;;;5033285;28;20040;-68
2022/05/07 10:09:43;;;;;;;3.30;2.05;;;17.30;92.10;;;;;;5033387;28;20029;-69
2022/05/07 10:12:17;;;;;;;3.03;1.75;;;17.40;91.70;;;;;;5032953;28;20508;-70
2022/05/07 10:14:42;;;;;;;3.53;1.98;;;17.40;91.40;;;;;;5032359;28;20044;-68
2022/05/07 10:17:11;;;;;;;3.47;1.85;;;17.40;91.40;;;;;;5033265;28;20429;-69
2022/05/07 10:19:43;;;;;;;4.10;1.67;;;17.40;91.90;;;;;;5032380;28;20116;-68
2022/05/07 10:22:23;;;;;;;5.63;2.20;;;17.40;91.50;;;;;;5032302;28;20490;-68
2022/05/07 10:25:00;;;;;;;2.72;1.90;;;17.40;91.70;;;;;;5031881;28;20044;-69
2022/05/07 10:27:32;;;;;;;2.83;2.17;;;17.50;92.30;;;;;;5031915;28;20066;-69
2022/05/07 10:30:08;;;;;;;7.63;2.13;;;17.50;93.00;;;;;;5032013;28;20038;-68
2022/05/07 10:32:58;;;;;;;5.60;2.42;;;17.50;91.60;;;;;;5032629;28;20049;-69
2022/05/07 10:35:52;;;;;;;4.43;1.92;;;17.60;90.60;;;;;;5032881;28;20141;-68
2022/05/07 10:38:23;;;;;;;3.13;1.70;;;17.60;91.40;;;;;;5032394;28;20037;-69
2022/05/07 10:40:50;;;;;;;2.97;2.10;;;17.70;92.60;;;;;;5032673;28;20060;-70
2022/05/07 10:43:28;;;;;;;3.42;2.13;;;17.70;91.60;;;;;;5032531;28;20222;-68
2022/05/07 10:45:56;;;;;;;2.55;2.10;;;17.70;90.80;;;;;;5032232;28;20037;-69
2022/05/07 10:48:22;;;;;;;2.70;2.00;;;17.70;89.80;;;;;;5031866;28;20033;-69
2022/05/07 10:50:58;;;;;;;12.32;2.08;;;17.70;88.40;;;;;;5032298;28;20088;-68
2022/05/07 10:53:38;;;;;;;5.93;1.83;;;17.70;87.70;;;;;;5032400;28;20513;-68
2022/05/07 10:56:10;;;;;;;4.35;1.80;;;17.60;87.20;;;;;;5036611;28;20030;-68
2022/05/07 10:58:36;;;;;;;2.50;1.75;;;17.70;86.60;;;;;;5036919;28;20029;-69
2022/05/07 11:01:03;;;;;;;4.13;2.40;;;17.70;86.40;;;;;;5036069;28;20029;-70
2022/05/07 11:03:29;;;;;;;5.50;2.35;;;17.70;86.60;;;;;;5035923;28;20084;-68
2022/05/07 11:06:02;;;;;;;2.92;2.58;;;17.70;87.10;;;;;;5036959;28;20474;-69
2022/05/07 11:08:30;;;;;;;2.53;2.00;;;17.70;87.90;;;;;;5036762;28;20038;-68
2022/05/07 11:11:11;;;;;;;4.43;2.13;;;17.80;89.10;;;;;;5036903;28;20029;-68
2022/05/07 11:13:47;;;;;;;3.45;2.40;;;17.90;88.40;;;;;;5018585;28;20424;-69
2022/05/07 11:16:13;;;;;;;4.28;2.28;;;17.80;88.10;;;;;;5036490;28;20502;-68
2022/05/07 11:18:41;;;;;;;3.67;2.10;;;17.80;87.20;;;;;;5036400;28;20033;-68
2022/05/07 11:21:08;;;;;;;4.50;2.20;;;17.90;87.20;;;;;;5036346;28;20065;-68
2022/05/07 11:23:39;;;;;;;4.50;2.42;;;17.90;91.20;;;;;;5036207;28;20124;-68
2022/05/07 11:26:12;;;;;;;2.95;2.17;;;17.90;98.60;;;;;;5036365;28;20033;-68
2022/05/07 11:28:40;;;;;;;4.53;2.22;;;18.00;97.30;;;;;;5035421;28;20038;-68
2022/05/07 11:31:05;;;;;;;3.38;2.30;;;18.00;93.30;;;;;;5032710;28;20048;-67
2022/05/07 11:33:31;;;;;;;5.47;2.53;;;17.90;93.10;;;;;;5033486;28;20034;-67
2022/05/07 11:36:07;;;;;;;3.50;2.17;;;;;;;;;;5035543;28;20026;-68
2022/05/07 11:38:37;;;;;;;2.00;1.50;;;;;;;;;;5036121;28;20112;-68
2022/05/07 11:41:13;;;;;;;3.75;2.47;;;;;;;;;;5033318;28;20038;-68
2022/05/07 11:46:23;;;;;;;3.67;2.17;;;18.10;94.30;;;;;;5036361;28;20036;-69
2022/05/07 11:48:49;;;;;;;2.47;1.80;;;18.10;94.40;;;;;;5036285;28;20033;-69
2022/05/07 11:51:25;;;;;;;5.45;1.90;;;;;;;;;;5036041;28;20036;-68
2022/05/07 11:53:52;;;;;;;6.10;2.20;;;18.00;86.40;;;;;;5035938;28;20433;-68
2022/05/07 11:56:18;;;;;;;5.53;1.63;;;18.10;88.60;;;;;;5036016;28;20033;-68
2022/05/07 11:58:49;;;;;;;2.78;2.20;;;18.10;89.90;;;;;;5034254;28;20115;-69
2022/05/07 12:01:22;;;;;;;3.33;2.08;;;18.10;90.40;;;;;;5033102;28;20057;-69
2022/05/07 12:03:51;;;;;;;2.78;1.90;;;18.20;93.00;;;;;;5032828;28;20049;-69
2022/05/07 12:06:29;;;;;;;3.25;2.03;;;18.20;93.40;;;;;;5034692;28;20371;-69
2022/05/07 12:08:55;;;;;;;4.70;2.10;;;18.20;97.60;;;;;;5035567;28;20497;-70
2022/05/07 12:11:21;;;;;;;4.38;3.05;;;;;;;;;;5035575;28;20037;-70
2022/05/07 12:13:47;;;;;;;4.97;2.45;;;;;;;;;;5035317;28;20413;-69
2022/05/07 12:18:58;;;;;;;4.13;2.33;;;;;;;;;;5035480;28;20052;-70
2022/05/07 12:29:49;;;;;;;3.40;2.30;;;18.60;84.80;;;;;;5035040;28;20048;-69
2022/05/07 12:32:19;;;;;;;2.88;2.20;;;18.60;83.80;;;;;;5035041;28;20030;-69
2022/05/07 12:34:46;;;;;;;6.20;3.40;;;18.60;81.80;;;;;;5034864;28;20037;-71
2022/05/07 12:37:12;;;;;;;2.63;1.90;;;18.60;84.40;;;;;;5032057;28;20034;-68
2022/05/07 12:39:38;;;;;;;5.75;2.30;;;;;;;;;;5032377;28;20134;-69
2022/05/07 12:42:09;;;;;;;3.28;2.22;;;18.60;93.70;;;;;;5034776;28;20041;-69
2022/05/07 12:44:35;;;;;;;3.60;2.60;;;18.70;92.80;;;;;;5034632;28;20044;-68
2022/05/07 12:47:02;;;;;;;4.38;2.60;;;;;;;;;;5035268;28;20124;-69
2022/05/07 12:49:28;;;;;;;3.90;2.47;;;;;;;;;;5035107;28;20561;-69
2022/05/07 12:51:55;;;;;;;3.45;2.67;;;;;;;;;;5034885;28;20061;-68
2022/05/07 12:54:21;;;;;;;6.28;2.65;;;18.80;92.50;;;;;;5034957;28;20042;-70
2022/05/07 12:56:48;;;;;;;4.18;1.95;;;18.90;92.50;;;;;;5034623;28;20048;-68
2022/05/07 12:59:14;;;;;;;6.07;2.60;;;18.90;93.00;;;;;;5034717;28;20037;-68
2022/05/07 13:01:39;;;;;;;5.82;2.72;;;19.00;91.10;;;;;;5034344;28;20493;-68
2022/05/07 13:04:06;;;;;;;3.30;2.22;;;;;;;;;;5034693;28;20481;-69
2022/05/07 13:06:32;;;;;;;5.03;2.33;;;;;;;;;;5034751;28;20025;-69
2022/05/07 13:09:01;;;;;;;4.55;2.15;;;;;;;;;;5034720;28;20048;-68
2022/05/07 13:11:27;;;;;;;3.63;2.35;;;19.20;94.50;;;;;;5034486;28;20458;-69
2022/05/07 13:13:54;;;;;;;5.05;3.15;;;;;;;;;;5034385;28;20092;-69
2022/05/07 13:16:20;;;;;;;4.53;2.88;;;;;;;;;;5033904;28;20420;-69
2022/05/07 13:18:46;;;;;;;4.80;2.97;;;;;;;;;;5034222;28;20048;-69
2022/05/07 13:21:11;;;;;;;3.88;2.38;;;19.60;83.50;;;;;;5034447;28;20083;-68
2022/05/07 13:23:38;;;;;;;5.22;2.83;;;;;;;;;;5034391;28;20117;-68
2022/05/07 13:26:04;;;;;;;6.50;2.95;;;19.80;92.80;;;;;;5034201;28;20038;-69
2022/05/07 13:28:30;;;;;;;7.55;3.13;;;;;;;;;;5032452;28;20498;-69